ALK104 VRMM-VCBI
Flight info
| Callsign | ALK104 |
|---|---|
| Flight time | 1h 9m |
| Altitude | 35000 |
| Route | HOKEY1A HOKEY M512 TELIG LALUM1A |
| Aircraft | A320/M-SDE3FGHIRWY/LB1 |
Departure
| Time | 2026-04-23 16:38 |
|---|---|
| Airport | Velana International Airport (VRMM) |
Arrival
| Time | 2026-04-23 17:47 |
|---|---|
| Airport | Bandaranaike International Colombo Airport (VCBI) |
| Time | Latitude | Longitude | Altitude | Speed | Heading |
|---|---|---|---|---|---|
| 2026-04-23 16:10 | 4.18919 | 73.52785 | 15 ft | 0 kts | 269° |
| 2026-04-23 16:29 | 4.18919 | 73.52787 | 14 ft | 1 kts | 269° |
| 2026-04-23 16:29 | 4.18920 | 73.52803 | 15 ft | 3 kts | 263° |
| 2026-04-23 16:30 | 4.18923 | 73.52823 | 14 ft | 3 kts | 252° |
| 2026-04-23 16:30 | 4.18931 | 73.52841 | 14 ft | 3 kts | 230° |
| 2026-04-23 16:30 | 4.18943 | 73.52852 | 14 ft | 2 kts | 186° |
| 2026-04-23 16:30 | 4.18952 | 73.52852 | 14 ft | 1 kts | 179° |
| 2026-04-23 16:31 | 4.18953 | 73.52852 | 14 ft | 0 kts | 179° |
| 2026-04-23 16:34 | 4.18949 | 73.52852 | 14 ft | 2 kts | 178° |
| 2026-04-23 16:34 | 4.18935 | 73.52863 | 15 ft | 3 kts | 130° |
| 2026-04-23 16:34 | 4.18930 | 73.52891 | 16 ft | 5 kts | 88° |
| 2026-04-23 16:35 | 4.18955 | 73.52916 | 14 ft | 6 kts | 21° |
| 2026-04-23 16:35 | 4.18993 | 73.52921 | 14 ft | 3 kts | 11° |
| 2026-04-23 16:35 | 4.19011 | 73.52938 | 16 ft | 4 kts | 53° |
| 2026-04-23 16:35 | 4.19009 | 73.52964 | 15 ft | 4 kts | 92° |
| 2026-04-23 16:36 | 4.19008 | 73.52997 | 15 ft | 5 kts | 90° |
| 2026-04-23 16:36 | 4.19008 | 73.53034 | 16 ft | 5 kts | 90° |
| 2026-04-23 16:36 | 4.19008 | 73.53074 | 17 ft | 6 kts | 90° |
| 2026-04-23 16:36 | 4.19040 | 73.53105 | 17 ft | 7 kts | 6° |
| 2026-04-23 16:37 | 4.19060 | 73.53105 | 16 ft | 9 kts | 0° |
| 2026-04-23 16:37 | 4.19389 | 73.53105 | 15 ft | 84 kts | 0° |
| 2026-04-23 16:37 | 4.20171 | 73.53104 | 12 ft | 140 kts | 360° |
| 2026-04-23 16:37 | 4.21277 | 73.53105 | 224 ft | 163 kts | 359° |
| 2026-04-23 16:38 | 4.22389 | 73.53107 | 876 ft | 159 kts | 359° |
| 2026-04-23 16:38 | 4.23503 | 73.53106 | 1465 ft | 161 kts | 358° |
| 2026-04-23 16:38 | 4.24627 | 73.53104 | 2009 ft | 163 kts | 359° |
| 2026-04-23 16:38 | 4.25817 | 73.53101 | 2289 ft | 181 kts | 359° |
| 2026-04-23 16:39 | 4.27143 | 73.53096 | 2576 ft | 200 kts | 359° |
| 2026-04-23 16:39 | 4.28629 | 73.53092 | 2793 ft | 228 kts | 359° |
| 2026-04-23 16:39 | 4.30296 | 73.53086 | 3180 ft | 251 kts | 359° |
| 2026-04-23 16:39 | 4.32105 | 73.53086 | 3725 ft | 268 kts | 0° |
| 2026-04-23 16:40 | 4.33994 | 73.53088 | 4548 ft | 273 kts | 0° |
| 2026-04-23 16:40 | 4.35905 | 73.53087 | 5403 ft | 276 kts | 0° |
| 2026-04-23 16:40 | 4.37841 | 73.53087 | 6257 ft | 280 kts | 2° |
| 2026-04-23 16:40 | 4.39752 | 73.53434 | 7033 ft | 281 kts | 22° |
| 2026-04-23 16:41 | 4.41405 | 73.54471 | 7808 ft | 283 kts | 45° |
| 2026-04-23 16:41 | 4.42496 | 73.56100 | 8589 ft | 285 kts | 70° |
| 2026-04-23 16:41 | 4.43048 | 73.58011 | 9385 ft | 287 kts | 75° |
| 2026-04-23 16:41 | 4.43562 | 73.59952 | 10122 ft | 290 kts | 75° |
| 2026-04-23 16:42 | 4.44095 | 73.61973 | 10394 ft | 311 kts | 75° |
| 2026-04-23 16:42 | 4.44670 | 73.64145 | 10546 ft | 333 kts | 75° |
| 2026-04-23 16:42 | 4.45279 | 73.66422 | 10994 ft | 342 kts | 75° |
| 2026-04-23 16:42 | 4.45901 | 73.68740 | 11560 ft | 347 kts | 75° |
| 2026-04-23 16:43 | 4.46532 | 73.71086 | 12157 ft | 351 kts | 74° |
| 2026-04-23 16:43 | 4.47170 | 73.73461 | 12759 ft | 355 kts | 74° |
| 2026-04-23 16:43 | 4.47813 | 73.75860 | 13348 ft | 358 kts | 74° |
| 2026-04-23 16:43 | 4.48465 | 73.78282 | 13895 ft | 362 kts | 74° |
| 2026-04-23 16:44 | 4.49123 | 73.80726 | 14446 ft | 365 kts | 74° |
| 2026-04-23 16:44 | 4.49785 | 73.83192 | 14970 ft | 368 kts | 74° |
| 2026-04-23 16:44 | 4.50450 | 73.85677 | 15495 ft | 371 kts | 74° |
| 2026-04-23 16:44 | 4.51120 | 73.88184 | 16022 ft | 374 kts | 74° |
| 2026-04-23 16:45 | 4.51795 | 73.90707 | 16537 ft | 377 kts | 74° |
| 2026-04-23 16:45 | 4.52480 | 73.93252 | 17052 ft | 380 kts | 74° |
| 2026-04-23 16:45 | 4.53172 | 73.95815 | 17581 ft | 383 kts | 74° |
| 2026-04-23 16:45 | 4.53867 | 73.98399 | 18104 ft | 386 kts | 74° |
| 2026-04-23 16:46 | 4.54567 | 74.01005 | 18557 ft | 389 kts | 74° |
| 2026-04-23 16:46 | 4.55269 | 74.03631 | 19020 ft | 391 kts | 74° |
| 2026-04-23 16:46 | 4.55972 | 74.06277 | 19471 ft | 395 kts | 74° |
| 2026-04-23 16:46 | 4.56682 | 74.08946 | 19918 ft | 398 kts | 75° |
| 2026-04-23 16:47 | 4.57398 | 74.11635 | 20370 ft | 401 kts | 75° |
| 2026-04-23 16:47 | 4.58122 | 74.14348 | 20829 ft | 404 kts | 75° |
| 2026-04-23 16:47 | 4.58853 | 74.17080 | 21290 ft | 408 kts | 75° |
| 2026-04-23 16:47 | 4.59591 | 74.19837 | 21741 ft | 411 kts | 75° |
| 2026-04-23 16:48 | 4.60336 | 74.22615 | 22157 ft | 415 kts | 75° |
| 2026-04-23 16:48 | 4.61088 | 74.25416 | 22567 ft | 418 kts | 76° |
| 2026-04-23 16:48 | 4.61589 | 74.27285 | 22833 ft | 420 kts | 76° |
| 2026-04-23 16:48 | 4.62352 | 74.30126 | 23230 ft | 424 kts | 76° |
| 2026-04-23 16:49 | 4.63122 | 74.32989 | 23594 ft | 427 kts | 76° |
| 2026-04-23 16:49 | 4.63895 | 74.35872 | 23935 ft | 429 kts | 76° |
| 2026-04-23 16:49 | 4.64667 | 74.38769 | 24275 ft | 432 kts | 76° |
| 2026-04-23 16:49 | 4.65443 | 74.41684 | 24616 ft | 434 kts | 76° |
| 2026-04-23 16:50 | 4.66221 | 74.44613 | 24946 ft | 436 kts | 76° |
| 2026-04-23 16:50 | 4.67005 | 74.47553 | 25276 ft | 438 kts | 76° |
| 2026-04-23 16:50 | 4.67796 | 74.50511 | 25603 ft | 440 kts | 76° |
| 2026-04-23 16:50 | 4.68601 | 74.53520 | 25928 ft | 442 kts | 76° |
| 2026-04-23 16:51 | 4.69390 | 74.56464 | 26246 ft | 444 kts | 77° |
| 2026-04-23 16:51 | 4.70192 | 74.59463 | 26562 ft | 446 kts | 77° |
| 2026-04-23 16:51 | 4.71007 | 74.62514 | 26866 ft | 448 kts | 77° |
| 2026-04-23 16:51 | 4.71813 | 74.65539 | 27165 ft | 450 kts | 77° |
| 2026-04-23 16:52 | 4.72620 | 74.68576 | 27459 ft | 452 kts | 77° |
| 2026-04-23 16:52 | 4.73433 | 74.71629 | 27758 ft | 454 kts | 77° |
| 2026-04-23 16:52 | 4.74252 | 74.74694 | 28059 ft | 456 kts | 77° |
| 2026-04-23 16:52 | 4.75074 | 74.77771 | 28369 ft | 458 kts | 77° |
| 2026-04-23 16:53 | 4.75898 | 74.80866 | 28674 ft | 460 kts | 77° |
| 2026-04-23 16:53 | 4.76725 | 74.83974 | 28976 ft | 463 kts | 78° |
| 2026-04-23 16:53 | 4.77558 | 74.87095 | 29278 ft | 465 kts | 78° |
| 2026-04-23 16:53 | 4.78396 | 74.90230 | 29568 ft | 467 kts | 77° |
| 2026-04-23 16:54 | 4.79236 | 74.93384 | 29850 ft | 469 kts | 78° |
| 2026-04-23 16:54 | 4.80079 | 74.96554 | 30112 ft | 471 kts | 78° |
| 2026-04-23 16:54 | 4.80921 | 74.99723 | 30451 ft | 471 kts | 78° |
| 2026-04-23 16:54 | 4.81766 | 75.02891 | 30796 ft | 470 kts | 78° |
| 2026-04-23 16:55 | 4.82613 | 75.06060 | 31131 ft | 470 kts | 78° |
| 2026-04-23 16:55 | 4.83459 | 75.09222 | 31472 ft | 470 kts | 78° |
| 2026-04-23 16:55 | 4.84299 | 75.12386 | 31816 ft | 469 kts | 79° |
| 2026-04-23 16:55 | 4.85138 | 75.15547 | 32162 ft | 469 kts | 79° |
| 2026-04-23 16:56 | 4.85981 | 75.18709 | 32509 ft | 469 kts | 79° |
| 2026-04-23 16:56 | 4.86824 | 75.21871 | 32863 ft | 469 kts | 79° |
| 2026-04-23 16:56 | 4.87668 | 75.25033 | 33215 ft | 469 kts | 79° |
| 2026-04-23 16:56 | 4.88510 | 75.28193 | 33574 ft | 469 kts | 79° |
| 2026-04-23 16:57 | 4.89350 | 75.31357 | 33925 ft | 469 kts | 79° |
| 2026-04-23 16:57 | 4.90185 | 75.34517 | 34221 ft | 469 kts | 79° |
| 2026-04-23 16:57 | 4.91022 | 75.37679 | 34515 ft | 469 kts | 79° |
| 2026-04-23 16:57 | 4.91861 | 75.40846 | 34785 ft | 470 kts | 79° |
| 2026-04-23 16:58 | 4.93552 | 75.47212 | 34903 ft | 475 kts | 79° |
| 2026-04-23 16:58 | 4.95257 | 75.53629 | 34899 ft | 477 kts | 79° |
| 2026-04-23 16:59 | 4.96964 | 75.60053 | 34898 ft | 477 kts | 79° |
| 2026-04-23 16:59 | 4.98671 | 75.66479 | 34898 ft | 477 kts | 79° |
| 2026-04-23 17:00 | 5.00363 | 75.72906 | 34900 ft | 477 kts | 79° |
| 2026-04-23 17:00 | 5.02067 | 75.79331 | 34903 ft | 477 kts | 79° |
| 2026-04-23 17:01 | 5.03778 | 75.85762 | 34907 ft | 477 kts | 79° |
| 2026-04-23 17:01 | 5.05483 | 75.92199 | 34907 ft | 478 kts | 79° |
| 2026-04-23 17:02 | 5.07186 | 75.98638 | 34906 ft | 478 kts | 79° |
| 2026-04-23 17:02 | 5.08890 | 76.05077 | 34907 ft | 478 kts | 79° |
| 2026-04-23 17:03 | 5.10595 | 76.11517 | 34906 ft | 478 kts | 79° |
| 2026-04-23 17:03 | 5.12411 | 76.17938 | 34905 ft | 479 kts | 77° |
| 2026-04-23 17:04 | 5.14414 | 76.24307 | 34905 ft | 479 kts | 76° |
| 2026-04-23 17:04 | 5.16442 | 76.30676 | 34907 ft | 479 kts | 76° |
| 2026-04-23 17:05 | 5.18419 | 76.37055 | 34911 ft | 479 kts | 77° |
| 2026-04-23 17:05 | 5.20370 | 76.43438 | 34908 ft | 479 kts | 77° |
| 2026-04-23 17:06 | 5.22319 | 76.49827 | 34904 ft | 479 kts | 77° |
| 2026-04-23 17:06 | 5.24264 | 76.56167 | 34902 ft | 479 kts | 77° |
| 2026-04-23 17:07 | 5.26223 | 76.62550 | 34903 ft | 479 kts | 77° |
| 2026-04-23 17:07 | 5.28176 | 76.68933 | 34904 ft | 479 kts | 77° |
| 2026-04-23 17:08 | 5.30127 | 76.75316 | 34902 ft | 478 kts | 77° |
| 2026-04-23 17:08 | 5.32081 | 76.81693 | 34899 ft | 478 kts | 77° |
| 2026-04-23 17:09 | 5.34033 | 76.88072 | 34900 ft | 478 kts | 77° |
| 2026-04-23 17:09 | 5.35987 | 76.94443 | 34900 ft | 478 kts | 77° |
| 2026-04-23 17:10 | 5.37943 | 77.00817 | 34902 ft | 478 kts | 77° |
| 2026-04-23 17:10 | 5.39887 | 77.07192 | 34902 ft | 478 kts | 77° |
| 2026-04-23 17:11 | 5.41832 | 77.13572 | 34902 ft | 478 kts | 77° |
| 2026-04-23 17:11 | 5.43780 | 77.19947 | 34904 ft | 478 kts | 77° |
| 2026-04-23 17:12 | 5.45732 | 77.26318 | 34910 ft | 477 kts | 77° |
| 2026-04-23 17:12 | 5.47672 | 77.32689 | 34910 ft | 477 kts | 77° |
| 2026-04-23 17:13 | 5.49609 | 77.39051 | 34909 ft | 477 kts | 77° |
| 2026-04-23 17:13 | 5.51551 | 77.45411 | 34905 ft | 477 kts | 77° |
| 2026-04-23 17:14 | 5.53496 | 77.51769 | 34905 ft | 476 kts | 77° |
| 2026-04-23 17:14 | 5.55433 | 77.58124 | 34901 ft | 476 kts | 77° |
| 2026-04-23 17:15 | 5.57359 | 77.64472 | 34906 ft | 475 kts | 77° |
| 2026-04-23 17:15 | 5.59284 | 77.70811 | 34908 ft | 474 kts | 77° |
| 2026-04-23 17:16 | 5.61219 | 77.77137 | 34906 ft | 474 kts | 76° |
| 2026-04-23 17:16 | 5.63148 | 77.83455 | 34907 ft | 473 kts | 77° |
| 2026-04-23 17:17 | 5.65072 | 77.89776 | 34904 ft | 473 kts | 77° |
| 2026-04-23 17:17 | 5.66981 | 77.96093 | 34896 ft | 473 kts | 76° |
| 2026-04-23 17:18 | 5.69854 | 78.02057 | 34901 ft | 480 kts | 57° |
| 2026-04-23 17:18 | 5.71907 | 78.04710 | 34900 ft | 481 kts | 54° |
| 2026-04-23 17:19 | 5.76097 | 78.09956 | 34894 ft | 482 kts | 54° |
| 2026-04-23 17:19 | 5.80277 | 78.15213 | 34897 ft | 482 kts | 54° |
| 2026-04-23 17:20 | 5.84486 | 78.20513 | 34899 ft | 482 kts | 54° |
| 2026-04-23 17:21 | 5.92853 | 78.31044 | 34902 ft | 482 kts | 54° |
| 2026-04-23 17:21 | 5.99125 | 78.38943 | 34902 ft | 482 kts | 54° |
| 2026-04-23 17:22 | 6.05392 | 78.46839 | 34900 ft | 482 kts | 54° |
| 2026-04-23 17:23 | 6.11664 | 78.54731 | 34899 ft | 482 kts | 54° |
| 2026-04-23 17:23 | 6.16419 | 78.59485 | 34896 ft | 486 kts | 39° |
| 2026-04-23 17:24 | 6.19089 | 78.61560 | 34891 ft | 486 kts | 39° |
| 2026-04-23 17:24 | 6.27099 | 78.67804 | 34891 ft | 486 kts | 40° |
| 2026-04-23 17:25 | 6.32426 | 78.71961 | 34515 ft | 484 kts | 40° |
| 2026-04-23 17:25 | 6.35116 | 78.74058 | 33365 ft | 494 kts | 40° |
| 2026-04-23 17:26 | 6.40531 | 78.78346 | 31392 ft | 498 kts | 44° |
| 2026-04-23 17:26 | 6.45061 | 78.83491 | 29617 ft | 489 kts | 53° |
| 2026-04-23 17:27 | 6.49279 | 78.88752 | 28336 ft | 476 kts | 53° |
| 2026-04-23 17:27 | 6.51348 | 78.91338 | 27658 ft | 472 kts | 53° |
| 2026-04-23 17:27 | 6.53390 | 78.93892 | 27076 ft | 466 kts | 53° |
| 2026-04-23 17:27 | 6.55407 | 78.96415 | 26486 ft | 460 kts | 52° |
| 2026-04-23 17:28 | 6.57404 | 78.98909 | 25911 ft | 455 kts | 52° |
| 2026-04-23 17:28 | 6.59380 | 79.01373 | 25344 ft | 450 kts | 52° |
| 2026-04-23 17:28 | 6.61338 | 79.03814 | 24795 ft | 446 kts | 52° |
| 2026-04-23 17:28 | 6.63275 | 79.06228 | 24249 ft | 441 kts | 52° |
| 2026-04-23 17:29 | 6.65175 | 79.08624 | 23742 ft | 436 kts | 52° |
| 2026-04-23 17:29 | 6.67044 | 79.11008 | 23182 ft | 432 kts | 52° |
| 2026-04-23 17:29 | 6.70697 | 79.15692 | 22183 ft | 420 kts | 52° |
| 2026-04-23 17:30 | 6.71885 | 79.17215 | 21842 ft | 417 kts | 52° |
| 2026-04-23 17:30 | 6.75462 | 79.21782 | 20817 ft | 410 kts | 52° |
| 2026-04-23 17:30 | 6.77200 | 79.23995 | 20316 ft | 407 kts | 52° |
| 2026-04-23 17:31 | 6.78953 | 79.26224 | 19824 ft | 404 kts | 52° |
| 2026-04-23 17:31 | 6.80686 | 79.28434 | 19327 ft | 402 kts | 52° |
| 2026-04-23 17:31 | 6.82411 | 79.30642 | 18834 ft | 399 kts | 52° |
| 2026-04-23 17:31 | 6.84110 | 79.32817 | 18430 ft | 393 kts | 52° |
| 2026-04-23 17:32 | 6.85796 | 79.34971 | 17880 ft | 389 kts | 52° |
| 2026-04-23 17:32 | 6.87462 | 79.37096 | 17127 ft | 385 kts | 52° |
| 2026-04-23 17:32 | 6.89111 | 79.39196 | 16439 ft | 379 kts | 52° |
| 2026-04-23 17:32 | 6.90722 | 79.41251 | 15914 ft | 369 kts | 52° |
| 2026-04-23 17:33 | 6.92289 | 79.43253 | 15391 ft | 360 kts | 52° |
| 2026-04-23 17:33 | 6.93917 | 79.45128 | 14880 ft | 352 kts | 43° |
| 2026-04-23 17:33 | 6.95793 | 79.46672 | 14377 ft | 345 kts | 38° |
| 2026-04-23 17:33 | 6.97671 | 79.48145 | 13882 ft | 339 kts | 38° |
| 2026-04-23 17:34 | 6.99539 | 79.49619 | 13355 ft | 334 kts | 39° |
| 2026-04-23 17:34 | 7.01346 | 79.51052 | 12855 ft | 328 kts | 39° |
| 2026-04-23 17:34 | 7.04858 | 79.53843 | 11914 ft | 316 kts | 39° |
| 2026-04-23 17:35 | 7.06574 | 79.55206 | 11447 ft | 312 kts | 39° |
| 2026-04-23 17:35 | 7.09939 | 79.57867 | 10555 ft | 304 kts | 38° |
| 2026-04-23 17:35 | 7.11590 | 79.59171 | 10186 ft | 298 kts | 39° |
| 2026-04-23 17:36 | 7.13202 | 79.60443 | 9920 ft | 291 kts | 39° |
| 2026-04-23 17:36 | 7.14786 | 79.61693 | 9808 ft | 289 kts | 39° |
| 2026-04-23 17:36 | 7.16367 | 79.62940 | 9689 ft | 289 kts | 39° |
| 2026-04-23 17:36 | 7.17945 | 79.64187 | 9560 ft | 288 kts | 39° |
| 2026-04-23 17:37 | 7.19519 | 79.65433 | 9346 ft | 288 kts | 39° |
| 2026-04-23 17:37 | 7.21089 | 79.66677 | 8989 ft | 287 kts | 39° |
| 2026-04-23 17:37 | 7.24218 | 79.69156 | 8245 ft | 286 kts | 38° |
| 2026-04-23 17:38 | 7.25782 | 79.70393 | 7878 ft | 285 kts | 39° |
| 2026-04-23 17:38 | 7.27335 | 79.71626 | 7549 ft | 284 kts | 39° |
| 2026-04-23 17:38 | 7.28883 | 79.72855 | 7171 ft | 284 kts | 38° |
| 2026-04-23 17:38 | 7.30432 | 79.74086 | 6849 ft | 282 kts | 39° |
| 2026-04-23 17:39 | 7.31961 | 79.75300 | 6639 ft | 276 kts | 39° |
| 2026-04-23 17:39 | 7.33451 | 79.76479 | 6446 ft | 270 kts | 39° |
| 2026-04-23 17:39 | 7.34923 | 79.77641 | 6150 ft | 268 kts | 39° |
| 2026-04-23 17:39 | 7.36384 | 79.78796 | 5843 ft | 266 kts | 39° |
| 2026-04-23 17:40 | 7.37840 | 79.79948 | 5530 ft | 266 kts | 39° |
| 2026-04-23 17:40 | 7.39282 | 79.81113 | 5189 ft | 265 kts | 44° |
| 2026-04-23 17:40 | 7.40265 | 79.82648 | 4886 ft | 263 kts | 74° |
| 2026-04-23 17:40 | 7.40310 | 79.84457 | 4572 ft | 261 kts | 105° |
| 2026-04-23 17:41 | 7.39460 | 79.86063 | 4229 ft | 262 kts | 126° |
| 2026-04-23 17:41 | 7.37370 | 79.88993 | 4000 ft | 249 kts | 125° |
| 2026-04-23 17:41 | 7.36369 | 79.90410 | 4004 ft | 248 kts | 125° |
| 2026-04-23 17:42 | 7.34338 | 79.93199 | 3458 ft | 247 kts | 128° |
| 2026-04-23 17:42 | 7.33278 | 79.94571 | 2876 ft | 249 kts | 129° |
| 2026-04-23 17:42 | 7.32221 | 79.95914 | 2565 ft | 240 kts | 133° |
| 2026-04-23 17:43 | 7.30927 | 79.96790 | 2462 ft | 214 kts | 166° |
| 2026-04-23 17:43 | 7.29525 | 79.96833 | 2369 ft | 194 kts | 195° |
| 2026-04-23 17:43 | 7.28379 | 79.96250 | 2150 ft | 179 kts | 216° |
| 2026-04-23 17:43 | 7.27450 | 79.95535 | 1960 ft | 159 kts | 216° |
| 2026-04-23 17:44 | 7.26618 | 79.94895 | 1761 ft | 144 kts | 216° |
| 2026-04-23 17:44 | 7.25830 | 79.94291 | 1584 ft | 139 kts | 216° |
| 2026-04-23 17:44 | 7.24301 | 79.93118 | 1231 ft | 138 kts | 216° |
| 2026-04-23 17:45 | 7.23537 | 79.92532 | 1041 ft | 138 kts | 216° |
| 2026-04-23 17:45 | 7.22005 | 79.91350 | 710 ft | 141 kts | 217° |
| 2026-04-23 17:45 | 7.21218 | 79.90747 | 556 ft | 143 kts | 216° |
| 2026-04-23 17:46 | 7.19621 | 79.89528 | 158 ft | 144 kts | 217° |
| 2026-04-23 17:46 | 7.18828 | 79.88923 | 32 ft | 134 kts | 216° |
| 2026-04-23 17:46 | 7.18213 | 79.88450 | 27 ft | 87 kts | 218° |
| 2026-04-23 17:47 | 7.17869 | 79.88187 | 30 ft | 41 kts | 217° |
| 2026-04-23 17:47 | 7.17654 | 79.88021 | 30 ft | 36 kts | 217° |
| 2026-04-23 17:47 | 7.17477 | 79.87968 | 29 ft | 11 kts | 126° |
| 2026-04-23 17:48 | 7.17421 | 79.88045 | 28 ft | 13 kts | 130° |
| 2026-04-23 17:48 | 7.17435 | 79.88081 | 28 ft | 6 kts | 46° |
| 2026-04-23 17:48 | 7.17479 | 79.88115 | 28 ft | 10 kts | 36° |
| 2026-04-23 17:48 | 7.17540 | 79.88162 | 28 ft | 13 kts | 37° |
| 2026-04-23 17:49 | 7.17618 | 79.88222 | 28 ft | 13 kts | 39° |
| 2026-04-23 17:49 | 7.17600 | 79.88290 | 27 ft | 13 kts | 127° |
| 2026-04-23 17:49 | 7.17552 | 79.88354 | 27 ft | 3 kts | 127° |
| 2026-04-23 17:49 | 7.17557 | 79.88371 | 27 ft | 4 kts | 53° |
| 2026-04-23 17:50 | 7.17585 | 79.88394 | 27 ft | 7 kts | 36° |
| 2026-04-23 17:50 | 7.17611 | 79.88414 | 27 ft | 0 kts | 37° |
| 2026-04-23 17:51 | 7.17611 | 79.88413 | 27 ft | 0 kts | 37° |